sensor_id;sensor_type;location;lat;lon;timestamp;temperature;humidity
1083;DHT22;530;51.448;7.238;2023-07-09T00:02:16;24.80;91.70
1083;DHT22;530;51.448;7.238;2023-07-09T00:04:42;24.80;91.70
1083;DHT22;530;51.448;7.238;2023-07-09T00:07:27;24.80;91.90
1083;DHT22;530;51.448;7.238;2023-07-09T00:09:54;24.70;91.90
1083;DHT22;530;51.448;7.238;2023-07-09T00:12:20;24.70;92.40
1083;DHT22;530;51.448;7.238;2023-07-09T00:14:46;24.60;93.20
1083;DHT22;530;51.448;7.238;2023-07-09T00:17:23;24.50;93.90
1083;DHT22;530;51.448;7.238;2023-07-09T00:19:51;24.40;94.70
1083;DHT22;530;51.448;7.238;2023-07-09T00:22:18;24.30;95.70
1083;DHT22;530;51.448;7.238;2023-07-09T00:24:47;24.20;96.20
1083;DHT22;530;51.448;7.238;2023-07-09T00:27:14;24.10;96.80
1083;DHT22;530;51.448;7.238;2023-07-09T00:29:44;24.00;97.80
1083;DHT22;530;51.448;7.238;2023-07-09T00:32:19;24.10;97.20
1083;DHT22;530;51.448;7.238;2023-07-09T00:34:49;24.10;96.60
1083;DHT22;530;51.448;7.238;2023-07-09T00:37:19;24.10;96.90
1083;DHT22;530;51.448;7.238;2023-07-09T00:39:46;24.20;96.60
1083;DHT22;530;51.448;7.238;2023-07-09T00:42:18;24.20;96.30
1083;DHT22;530;51.448;7.238;2023-07-09T00:44:46;24.30;96.10
1083;DHT22;530;51.448;7.238;2023-07-09T00:47:25;24.30;96.00
1083;DHT22;530;51.448;7.238;2023-07-09T00:50:08;24.30;96.00
1083;DHT22;530;51.448;7.238;2023-07-09T00:52:43;24.30;96.10
1083;DHT22;530;51.448;7.238;2023-07-09T00:55:16;24.20;96.10
1083;DHT22;530;51.448;7.238;2023-07-09T00:57:43;24.30;96.20
1083;DHT22;530;51.448;7.238;2023-07-09T01:00:12;24.30;96.30
1083;DHT22;530;51.448;7.238;2023-07-09T01:02:44;24.30;96.30
1083;DHT22;530;51.448;7.238;2023-07-09T01:05:12;24.30;96.40
1083;DHT22;530;51.448;7.238;2023-07-09T01:07:40;24.30;96.40
1083;DHT22;530;51.448;7.238;2023-07-09T01:10:06;24.30;96.70
1083;DHT22;530;51.448;7.238;2023-07-09T01:12:32;24.20;96.70
1083;DHT22;530;51.448;7.238;2023-07-09T01:14:59;24.10;97.60
1083;DHT22;530;51.448;7.238;2023-07-09T01:17:27;24.10;98.40
1083;DHT22;530;51.448;7.238;2023-07-09T01:19:54;24.00;98.20
1083;DHT22;530;51.448;7.238;2023-07-09T01:22:21;24.10;97.70
1083;DHT22;530;51.448;7.238;2023-07-09T01:27:18;23.90;99.10
1083;DHT22;530;51.448;7.238;2023-07-09T01:29:44;23.80;99.90
1083;DHT22;530;51.448;7.238;2023-07-09T01:32:18;23.70;99.90
1083;DHT22;530;51.448;7.238;2023-07-09T01:34:49;23.50;99.90
1083;DHT22;530;51.448;7.238;2023-07-09T01:37:21;23.30;99.90
1083;DHT22;530;51.448;7.238;2023-07-09T01:39:48;23.20;99.90
1083;DHT22;530;51.448;7.238;2023-07-09T01:42:16;23.10;99.90
1083;DHT22;530;51.448;7.238;2023-07-09T01:44:43;23.00;99.90
1083;DHT22;530;51.448;7.238;2023-07-09T01:47:11;23.00;99.90
1083;DHT22;530;51.448;7.238;2023-07-09T01:49:37;22.80;99.90
1083;DHT22;530;51.448;7.238;2023-07-09T01:52:05;22.90;99.90
1083;DHT22;530;51.448;7.238;2023-07-09T01:54:34;22.80;99.90
1083;DHT22;530;51.448;7.238;2023-07-09T01:57:35;22.70;99.90
1083;DHT22;530;51.448;7.238;2023-07-09T02:00:07;22.70;99.90
1083;DHT22;530;51.448;7.238;2023-07-09T02:02:37;22.70;99.90
1083;DHT22;530;51.448;7.238;2023-07-09T02:05:09;22.80;99.90
1083;DHT22;530;51.448;7.238;2023-07-09T02:07:35;22.80;99.90
1083;DHT22;530;51.448;7.238;2023-07-09T02:10:01;22.90;99.90
1083;DHT22;530;51.448;7.238;2023-07-09T02:12:28;22.80;99.90
1083;DHT22;530;51.448;7.238;2023-07-09T02:14:54;22.70;99.90
1083;DHT22;530;51.448;7.238;2023-07-09T02:17:19;22.60;99.90
1083;DHT22;530;51.448;7.238;2023-07-09T02:19:45;22.60;99.90
1083;DHT22;530;51.448;7.238;2023-07-09T02:22:11;22.50;99.90
1083;DHT22;530;51.448;7.238;2023-07-09T02:24:37;22.30;99.90
1083;DHT22;530;51.448;7.238;2023-07-09T02:27:05;22.20;99.90
1083;DHT22;530;51.448;7.238;2023-07-09T02:29:31;22.20;99.90
1083;DHT22;530;51.448;7.238;2023-07-09T02:31:58;22.20;99.90
1083;DHT22;530;51.448;7.238;2023-07-09T02:34:25;22.00;99.90
1083;DHT22;530;51.448;7.238;2023-07-09T02:36:53;21.90;99.90
1083;DHT22;530;51.448;7.238;2023-07-09T02:39:20;21.90;99.90
1083;DHT22;530;51.448;7.238;2023-07-09T02:41:46;21.80;99.90
1083;DHT22;530;51.448;7.238;2023-07-09T02:44:12;21.90;99.90
1083;DHT22;530;51.448;7.238;2023-07-09T02:46:37;21.80;99.90
1083;DHT22;530;51.448;7.238;2023-07-09T02:49:04;21.80;99.90
1083;DHT22;530;51.448;7.238;2023-07-09T02:51:31;21.70;99.90
1083;DHT22;530;51.448;7.238;2023-07-09T02:53:58;21.60;99.90
1083;DHT22;530;51.448;7.238;2023-07-09T02:56:24;21.50;99.90
1083;DHT22;530;51.448;7.238;2023-07-09T02:58:51;21.50;99.90
1083;DHT22;530;51.448;7.238;2023-07-09T03:01:17;21.40;99.90
1083;DHT22;530;51.448;7.238;2023-07-09T03:03:43;21.30;99.90
1083;DHT22;530;51.448;7.238;2023-07-09T03:06:09;21.40;99.90
1083;DHT22;530;51.448;7.238;2023-07-09T03:08:35;21.30;99.90
1083;DHT22;530;51.448;7.238;2023-07-09T03:11:09;21.30;99.90
1083;DHT22;530;51.448;7.238;2023-07-09T03:13:35;21.30;99.90
1083;DHT22;530;51.448;7.238;2023-07-09T03:16:01;21.30;99.90
1083;DHT22;530;51.448;7.238;2023-07-09T03:18:26;21.30;99.90
1083;DHT22;530;51.448;7.238;2023-07-09T03:20:52;21.30;99.90
1083;DHT22;530;51.448;7.238;2023-07-09T03:23:18;21.40;99.90
1083;DHT22;530;51.448;7.238;2023-07-09T03:25:44;21.40;99.90
1083;DHT22;530;51.448;7.238;2023-07-09T03:28:11;21.30;99.90
1083;DHT22;530;51.448;7.238;2023-07-09T03:30:47;21.20;99.90
1083;DHT22;530;51.448;7.238;2023-07-09T03:33:14;21.10;99.90
1083;DHT22;530;51.448;7.238;2023-07-09T03:35:41;21.00;99.90
1083;DHT22;530;51.448;7.238;2023-07-09T03:38:08;21.00;99.90
1083;DHT22;530;51.448;7.238;2023-07-09T03:40:34;20.90;99.90
1083;DHT22;530;51.448;7.238;2023-07-09T03:43:00;20.90;99.90
1083;DHT22;530;51.448;7.238;2023-07-09T03:45:26;21.00;99.90
1083;DHT22;530;51.448;7.238;2023-07-09T03:47:52;20.90;99.90
1083;DHT22;530;51.448;7.238;2023-07-09T03:50:18;20.90;99.90
1083;DHT22;530;51.448;7.238;2023-07-09T03:52:44;21.00;99.90
1083;DHT22;530;51.448;7.238;2023-07-09T03:55:10;21.00;99.90
1083;DHT22;530;51.448;7.238;2023-07-09T03:57:35;21.00;99.90
1083;DHT22;530;51.448;7.238;2023-07-09T04:00:03;21.00;99.90
1083;DHT22;530;51.448;7.238;2023-07-09T04:02:30;20.90;99.90
1083;DHT22;530;51.448;7.238;2023-07-09T04:04:56;20.90;99.90
1083;DHT22;530;51.448;7.238;2023-07-09T04:07:22;20.90;99.90
1083;DHT22;530;51.448;7.238;2023-07-09T04:09:48;20.80;99.90
1083;DHT22;530;51.448;7.238;2023-07-09T04:12:14;20.80;99.90
1083;DHT22;530;51.448;7.238;2023-07-09T04:14:40;21.00;99.90
1083;DHT22;530;51.448;7.238;2023-07-09T04:17:08;21.00;99.90
1083;DHT22;530;51.448;7.238;2023-07-09T04:19:34;21.10;99.90
1083;DHT22;530;51.448;7.238;2023-07-09T04:22:00;21.20;99.90
1083;DHT22;530;51.448;7.238;2023-07-09T04:24:26;21.20;99.90
1083;DHT22;530;51.448;7.238;2023-07-09T04:26:52;21.30;99.90
1083;DHT22;530;51.448;7.238;2023-07-09T04:29:22;21.30;99.90
1083;DHT22;530;51.448;7.238;2023-07-09T04:31:48;21.40;99.90
1083;DHT22;530;51.448;7.238;2023-07-09T04:34:14;21.40;99.90
1083;DHT22;530;51.448;7.238;2023-07-09T04:36:40;21.50;99.90
1083;DHT22;530;51.448;7.238;2023-07-09T04:39:05;21.60;99.90
1083;DHT22;530;51.448;7.238;2023-07-09T04:41:32;21.60;99.90
1083;DHT22;530;51.448;7.238;2023-07-09T04:43:58;21.60;99.90
1083;DHT22;530;51.448;7.238;2023-07-09T04:46:24;21.60;99.90
1083;DHT22;530;51.448;7.238;2023-07-09T04:48:50;21.60;99.90
1083;DHT22;530;51.448;7.238;2023-07-09T04:51:16;21.70;99.90
1083;DHT22;530;51.448;7.238;2023-07-09T04:53:43;21.70;99.90
1083;DHT22;530;51.448;7.238;2023-07-09T04:56:09;21.70;99.90
1083;DHT22;530;51.448;7.238;2023-07-09T04:58:35;21.80;99.90
1083;DHT22;530;51.448;7.238;2023-07-09T05:01:01;21.80;99.90
1083;DHT22;530;51.448;7.238;2023-07-09T05:03:27;21.90;99.90
1083;DHT22;530;51.448;7.238;2023-07-09T05:05:52;22.00;99.90
1083;DHT22;530;51.448;7.238;2023-07-09T05:08:18;22.10;99.90
1083;DHT22;530;51.448;7.238;2023-07-09T05:10:48;22.30;99.90
1083;DHT22;530;51.448;7.238;2023-07-09T05:13:15;22.40;99.90
1083;DHT22;530;51.448;7.238;2023-07-09T05:15:44;22.40;99.90
1083;DHT22;530;51.448;7.238;2023-07-09T05:18:11;22.50;99.90
1083;DHT22;530;51.448;7.238;2023-07-09T05:20:37;22.60;99.90
1083;DHT22;530;51.448;7.238;2023-07-09T05:23:03;22.70;99.90
1083;DHT22;530;51.448;7.238;2023-07-09T05:25:29;22.80;99.90
1083;DHT22;530;51.448;7.238;2023-07-09T05:27:55;22.90;99.90
1083;DHT22;530;51.448;7.238;2023-07-09T05:30:21;23.10;99.90
1083;DHT22;530;51.448;7.238;2023-07-09T05:32:47;23.10;99.90
1083;DHT22;530;51.448;7.238;2023-07-09T05:35:13;23.20;99.90
1083;DHT22;530;51.448;7.238;2023-07-09T05:37:39;23.20;99.90
1083;DHT22;530;51.448;7.238;2023-07-09T05:40:06;23.40;99.90
1083;DHT22;530;51.448;7.238;2023-07-09T05:42:32;23.50;99.90
1083;DHT22;530;51.448;7.238;2023-07-09T05:44:58;23.60;99.90
1083;DHT22;530;51.448;7.238;2023-07-09T05:47:25;23.60;99.90
1083;DHT22;530;51.448;7.238;2023-07-09T05:49:51;23.80;99.90
1083;DHT22;530;51.448;7.238;2023-07-09T05:52:19;23.90;99.90
1083;DHT22;530;51.448;7.238;2023-07-09T05:54:45;24.00;99.90
1083;DHT22;530;51.448;7.238;2023-07-09T05:57:11;24.10;99.90
1083;DHT22;530;51.448;7.238;2023-07-09T05:59:37;24.20;99.90
1083;DHT22;530;51.448;7.238;2023-07-09T06:02:03;24.40;99.90
1083;DHT22;530;51.448;7.238;2023-07-09T06:04:29;24.50;99.90
1083;DHT22;530;51.448;7.238;2023-07-09T06:06:56;24.70;99.90
1083;DHT22;530;51.448;7.238;2023-07-09T06:09:22;24.70;99.90
1083;DHT22;530;51.448;7.238;2023-07-09T06:11:48;24.70;99.90
1083;DHT22;530;51.448;7.238;2023-07-09T06:14:14;24.70;99.90
1083;DHT22;530;51.448;7.238;2023-07-09T06:16:42;24.70;99.90
1083;DHT22;530;51.448;7.238;2023-07-09T06:19:09;24.80;99.90
1083;DHT22;530;51.448;7.238;2023-07-09T06:21:34;24.80;99.90
1083;DHT22;530;51.448;7.238;2023-07-09T06:24:00;24.80;99.90
1083;DHT22;530;51.448;7.238;2023-07-09T06:26:26;24.90;99.90
1083;DHT22;530;51.448;7.238;2023-07-09T06:28:52;24.90;99.90
1083;DHT22;530;51.448;7.238;2023-07-09T06:31:17;24.90;99.90
1083;DHT22;530;51.448;7.238;2023-07-09T06:33:47;25.00;99.90
1083;DHT22;530;51.448;7.238;2023-07-09T06:36:13;25.00;99.90
1083;DHT22;530;51.448;7.238;2023-07-09T06:38:38;25.10;99.90
1083;DHT22;530;51.448;7.238;2023-07-09T06:41:04;25.20;99.90
1083;DHT22;530;51.448;7.238;2023-07-09T06:43:30;25.30;99.90
1083;DHT22;530;51.448;7.238;2023-07-09T06:46:00;25.30;99.90
1083;DHT22;530;51.448;7.238;2023-07-09T06:48:28;25.40;99.90
1083;DHT22;530;51.448;7.238;2023-07-09T06:50:55;25.50;99.90
1083;DHT22;530;51.448;7.238;2023-07-09T06:53:22;25.50;99.90
1083;DHT22;530;51.448;7.238;2023-07-09T06:55:48;25.60;99.90
1083;DHT22;530;51.448;7.238;2023-07-09T06:58:21;25.70;99.90
1083;DHT22;530;51.448;7.238;2023-07-09T07:00:50;25.70;99.90
1083;DHT22;530;51.448;7.238;2023-07-09T07:03:16;25.80;99.90
1083;DHT22;530;51.448;7.238;2023-07-09T07:05:44;25.90;99.90
1083;DHT22;530;51.448;7.238;2023-07-09T07:08:12;26.00;99.90
1083;DHT22;530;51.448;7.238;2023-07-09T07:10:39;26.10;99.90
1083;DHT22;530;51.448;7.238;2023-07-09T07:13:04;26.10;99.90
1083;DHT22;530;51.448;7.238;2023-07-09T07:15:30;26.20;99.90
1083;DHT22;530;51.448;7.238;2023-07-09T07:17:56;26.20;99.90
1083;DHT22;530;51.448;7.238;2023-07-09T07:20:21;26.30;99.90
1083;DHT22;530;51.448;7.238;2023-07-09T07:22:47;26.40;99.90
1083;DHT22;530;51.448;7.238;2023-07-09T07:25:13;26.40;99.90
1083;DHT22;530;51.448;7.238;2023-07-09T07:27:39;26.50;99.90
1083;DHT22;530;51.448;7.238;2023-07-09T07:30:06;26.60;99.90
1083;DHT22;530;51.448;7.238;2023-07-09T07:32:35;26.70;99.90
1083;DHT22;530;51.448;7.238;2023-07-09T07:35:02;26.70;99.90
1083;DHT22;530;51.448;7.238;2023-07-09T07:37:28;26.80;99.90
1083;DHT22;530;51.448;7.238;2023-07-09T07:39:53;26.90;99.90
1083;DHT22;530;51.448;7.238;2023-07-09T07:42:19;27.00;99.90
1083;DHT22;530;51.448;7.238;2023-07-09T07:44:45;27.00;99.90
1083;DHT22;530;51.448;7.238;2023-07-09T07:47:11;27.10;99.90
1083;DHT22;530;51.448;7.238;2023-07-09T07:49:37;27.20;99.90
1083;DHT22;530;51.448;7.238;2023-07-09T07:52:03;27.30;99.90
1083;DHT22;530;51.448;7.238;2023-07-09T07:54:30;27.30;99.90
1083;DHT22;530;51.448;7.238;2023-07-09T07:56:57;27.40;99.90
1083;DHT22;530;51.448;7.238;2023-07-09T07:59:24;27.40;99.90
1083;DHT22;530;51.448;7.238;2023-07-09T08:01:49;27.50;99.90
1083;DHT22;530;51.448;7.238;2023-07-09T08:04:15;27.60;99.90
1083;DHT22;530;51.448;7.238;2023-07-09T08:06:41;27.60;99.90
1083;DHT22;530;51.448;7.238;2023-07-09T08:09:07;27.70;99.90
1083;DHT22;530;51.448;7.238;2023-07-09T08:11:33;27.70;99.90
1083;DHT22;530;51.448;7.238;2023-07-09T08:13:59;27.80;99.90
1083;DHT22;530;51.448;7.238;2023-07-09T08:16:26;27.80;99.70
1083;DHT22;530;51.448;7.238;2023-07-09T08:18:52;27.80;99.90
1083;DHT22;530;51.448;7.238;2023-07-09T08:21:18;27.80;99.90
1083;DHT22;530;51.448;7.238;2023-07-09T08:23:45;27.80;99.90
1083;DHT22;530;51.448;7.238;2023-07-09T08:26:10;27.90;99.90
1083;DHT22;530;51.448;7.238;2023-07-09T08:28:37;28.00;99.90
1083;DHT22;530;51.448;7.238;2023-07-09T08:31:03;28.10;99.90
1083;DHT22;530;51.448;7.238;2023-07-09T08:33:30;28.10;99.90
1083;DHT22;530;51.448;7.238;2023-07-09T08:35:56;28.10;99.70
1083;DHT22;530;51.448;7.238;2023-07-09T08:38:22;28.20;99.90
1083;DHT22;530;51.448;7.238;2023-07-09T08:41:06;28.30;99.90
1083;DHT22;530;51.448;7.238;2023-07-09T08:49:22;28.40;99.10
1083;DHT22;530;51.448;7.238;2023-07-09T08:51:49;28.50;99.10
1083;DHT22;530;51.448;7.238;2023-07-09T08:54:25;28.60;99.20
1083;DHT22;530;51.448;7.238;2023-07-09T08:56:52;28.60;98.20
1083;DHT22;530;51.448;7.238;2023-07-09T08:59:19;28.70;98.40
1083;DHT22;530;51.448;7.238;2023-07-09T09:01:53;28.70;98.40
1083;DHT22;530;51.448;7.238;2023-07-09T09:04:28;28.80;99.00
1083;DHT22;530;51.448;7.238;2023-07-09T09:09:45;28.90;97.80
1083;DHT22;530;51.448;7.238;2023-07-09T09:12:20;29.00;97.80
1083;DHT22;530;51.448;7.238;2023-07-09T09:15:17;29.10;98.60
1083;DHT22;530;51.448;7.238;2023-07-09T09:17:44;29.20;97.50
1083;DHT22;530;51.448;7.238;2023-07-09T09:20:16;29.30;97.80
1083;DHT22;530;51.448;7.238;2023-07-09T09:23:12;29.40;97.20
1083;DHT22;530;51.448;7.238;2023-07-09T09:25:38;29.50;97.00
1083;DHT22;530;51.448;7.238;2023-07-09T09:28:05;29.60;97.70
1083;DHT22;530;51.448;7.238;2023-07-09T09:30:30;29.70;97.90
1083;DHT22;530;51.448;7.238;2023-07-09T09:32:59;29.80;96.40
1083;DHT22;530;51.448;7.238;2023-07-09T09:35:31;29.90;96.90
1083;DHT22;530;51.448;7.238;2023-07-09T09:37:59;30.00;96.10
1083;DHT22;530;51.448;7.238;2023-07-09T09:40:27;30.10;96.30
1083;DHT22;530;51.448;7.238;2023-07-09T09:42:55;30.20;95.20
1083;DHT22;530;51.448;7.238;2023-07-09T09:45:34;30.30;95.50
1083;DHT22;530;51.448;7.238;2023-07-09T09:48:10;30.40;95.70
1083;DHT22;530;51.448;7.238;2023-07-09T09:50:40;30.40;94.90
1083;DHT22;530;51.448;7.238;2023-07-09T09:53:07;30.50;94.80
1083;DHT22;530;51.448;7.238;2023-07-09T09:55:34;30.60;94.80
1083;DHT22;530;51.448;7.238;2023-07-09T09:58:00;30.60;94.70
1083;DHT22;530;51.448;7.238;2023-07-09T10:00:29;30.80;93.50
1083;DHT22;530;51.448;7.238;2023-07-09T10:03:03;30.90;92.90
1083;DHT22;530;51.448;7.238;2023-07-09T10:05:44;31.00;92.60
1083;DHT22;530;51.448;7.238;2023-07-09T10:11:16;31.10;93.00
1083;DHT22;530;51.448;7.238;2023-07-09T10:13:44;31.20;91.60
1083;DHT22;530;51.448;7.238;2023-07-09T10:16:31;31.20;91.10
1083;DHT22;530;51.448;7.238;2023-07-09T10:22:04;31.30;92.00
1083;DHT22;530;51.448;7.238;2023-07-09T10:24:51;31.30;91.60
1083;DHT22;530;51.448;7.238;2023-07-09T10:33:09;31.50;90.70
1083;DHT22;530;51.448;7.238;2023-07-09T10:35:48;31.60;88.90
1083;DHT22;530;51.448;7.238;2023-07-09T10:41:13;31.70;86.80
1083;DHT22;530;51.448;7.238;2023-07-09T10:44:11;31.80;86.50
1083;DHT22;530;51.448;7.238;2023-07-09T10:46:39;31.80;86.30
1083;DHT22;530;51.448;7.238;2023-07-09T10:49:11;31.90;88.40
1083;DHT22;530;51.448;7.238;2023-07-09T10:51:55;32.00;85.20
1083;DHT22;530;51.448;7.238;2023-07-09T10:57:00;32.20;86.00
1083;DHT22;530;51.448;7.238;2023-07-09T10:59:32;32.30;82.90
1083;DHT22;530;51.448;7.238;2023-07-09T11:02:19;32.30;82.60
1083;DHT22;530;51.448;7.238;2023-07-09T11:05:00;32.30;82.10
1083;DHT22;530;51.448;7.238;2023-07-09T11:07:30;32.30;81.60
1083;DHT22;530;51.448;7.238;2023-07-09T11:09:58;32.40;83.00
1083;DHT22;530;51.448;7.238;2023-07-09T11:12:46;32.60;84.50
1083;DHT22;530;51.448;7.238;2023-07-09T11:15:23;32.70;82.70
1083;DHT22;530;51.448;7.238;2023-07-09T11:17:49;32.70;82.10
1083;DHT22;530;51.448;7.238;2023-07-09T11:20:33;32.80;80.30
1083;DHT22;530;51.448;7.238;2023-07-09T11:23:20;32.80;80.10
1083;DHT22;530;51.448;7.238;2023-07-09T11:26:03;32.80;78.40
1083;DHT22;530;51.448;7.238;2023-07-09T11:28:38;32.80;76.30
1083;DHT22;530;51.448;7.238;2023-07-09T11:31:18;32.80;75.50
1083;DHT22;530;51.448;7.238;2023-07-09T11:36:31;32.90;74.20
1083;DHT22;530;51.448;7.238;2023-07-09T11:38:57;32.80;73.30
1083;DHT22;530;51.448;7.238;2023-07-09T11:41:40;32.80;74.00
1083;DHT22;530;51.448;7.238;2023-07-09T11:44:25;32.80;72.80
1083;DHT22;530;51.448;7.238;2023-07-09T11:49:58;32.90;76.90
1083;DHT22;530;51.448;7.238;2023-07-09T11:55:03;33.10;74.60
1083;DHT22;530;51.448;7.238;2023-07-09T11:57:41;33.10;73.40
1083;DHT22;530;51.448;7.238;2023-07-09T12:00:08;33.10;72.50
1083;DHT22;530;51.448;7.238;2023-07-09T12:02:34;33.20;72.60
1083;DHT22;530;51.448;7.238;2023-07-09T12:05:02;33.20;74.70
1083;DHT22;530;51.448;7.238;2023-07-09T12:07:29;33.10;71.70
1083;DHT22;530;51.448;7.238;2023-07-09T12:09:55;33.10;72.50
1083;DHT22;530;51.448;7.238;2023-07-09T12:12:24;33.00;68.80
1083;DHT22;530;51.448;7.238;2023-07-09T12:14:51;33.00;71.20
1083;DHT22;530;51.448;7.238;2023-07-09T12:17:17;33.00;72.80
1083;DHT22;530;51.448;7.238;2023-07-09T12:19:43;33.00;71.80
1083;DHT22;530;51.448;7.238;2023-07-09T12:22:35;33.10;71.80
1083;DHT22;530;51.448;7.238;2023-07-09T12:25:01;33.10;71.30
1083;DHT22;530;51.448;7.238;2023-07-09T12:27:27;33.10;71.40
1083;DHT22;530;51.448;7.238;2023-07-09T12:30:03;33.10;69.70
1083;DHT22;530;51.448;7.238;2023-07-09T12:32:28;33.10;69.40
1083;DHT22;530;51.448;7.238;2023-07-09T12:34:56;33.10;69.10
1083;DHT22;530;51.448;7.238;2023-07-09T12:37:24;33.10;70.50
1083;DHT22;530;51.448;7.238;2023-07-09T12:39:51;33.10;70.80
1083;DHT22;530;51.448;7.238;2023-07-09T12:42:28;33.10;69.10
1083;DHT22;530;51.448;7.238;2023-07-09T12:44:55;33.10;67.00
1083;DHT22;530;51.448;7.238;2023-07-09T12:47:23;33.00;67.90
1083;DHT22;530;51.448;7.238;2023-07-09T12:49:50;33.00;67.40
1083;DHT22;530;51.448;7.238;2023-07-09T12:52:20;32.90;66.50
1083;DHT22;530;51.448;7.238;2023-07-09T12:54:58;32.90;66.70
1083;DHT22;530;51.448;7.238;2023-07-09T12:57:25;32.80;68.20
1083;DHT22;530;51.448;7.238;2023-07-09T12:59:54;32.80;67.00
1083;DHT22;530;51.448;7.238;2023-07-09T13:04:50;32.70;66.60
1083;DHT22;530;51.448;7.238;2023-07-09T13:07:26;32.70;68.10
1083;DHT22;530;51.448;7.238;2023-07-09T13:09:54;32.70;69.50
1083;DHT22;530;51.448;7.238;2023-07-09T13:12:28;32.70;69.20
1083;DHT22;530;51.448;7.238;2023-07-09T13:14:55;32.70;68.60
1083;DHT22;530;51.448;7.238;2023-07-09T13:17:21;32.70;68.50
1083;DHT22;530;51.448;7.238;2023-07-09T13:19:46;32.60;68.60
1083;DHT22;530;51.448;7.238;2023-07-09T13:22:17;32.60;69.00
1083;DHT22;530;51.448;7.238;2023-07-09T13:24:45;32.60;68.50
1083;DHT22;530;51.448;7.238;2023-07-09T13:27:15;32.50;68.90
1083;DHT22;530;51.448;7.238;2023-07-09T13:29:42;32.40;70.50
1083;DHT22;530;51.448;7.238;2023-07-09T13:32:15;32.40;71.00
1083;DHT22;530;51.448;7.238;2023-07-09T13:34:40;32.40;71.50
1083;DHT22;530;51.448;7.238;2023-07-09T13:37:14;32.40;71.30
1083;DHT22;530;51.448;7.238;2023-07-09T13:39:41;32.40;72.10
1083;DHT22;530;51.448;7.238;2023-07-09T13:42:13;32.40;72.60
1083;DHT22;530;51.448;7.238;2023-07-09T13:44:42;32.40;71.80
1083;DHT22;530;51.448;7.238;2023-07-09T13:47:12;32.30;72.10
1083;DHT22;530;51.448;7.238;2023-07-09T13:49:40;32.20;72.00
1083;DHT22;530;51.448;7.238;2023-07-09T13:52:13;32.20;72.30
1083;DHT22;530;51.448;7.238;2023-07-09T13:54:40;32.10;72.80
1083;DHT22;530;51.448;7.238;2023-07-09T13:57:09;32.10;73.20
1083;DHT22;530;51.448;7.238;2023-07-09T13:59:36;32.10;72.60
1083;DHT22;530;51.448;7.238;2023-07-09T14:02:02;32.00;72.30
1083;DHT22;530;51.448;7.238;2023-07-09T14:04:28;32.00;73.50
1083;DHT22;530;51.448;7.238;2023-07-09T14:06:54;31.90;75.20
1083;DHT22;530;51.448;7.238;2023-07-09T14:09:20;31.80;78.10
1083;DHT22;530;51.448;7.238;2023-07-09T14:11:53;31.70;77.70
1083;DHT22;530;51.448;7.238;2023-07-09T14:14:29;31.60;77.60
1083;DHT22;530;51.448;7.238;2023-07-09T14:16:56;31.50;83.20
1083;DHT22;530;51.448;7.238;2023-07-09T14:19:23;31.30;83.30
1083;DHT22;530;51.448;7.238;2023-07-09T14:21:49;31.20;87.10
1083;DHT22;530;51.448;7.238;2023-07-09T14:24:26;31.00;90.10
1083;DHT22;530;51.448;7.238;2023-07-09T14:26:54;30.90;89.20
1083;DHT22;530;51.448;7.238;2023-07-09T14:29:21;30.80;89.40
1083;DHT22;530;51.448;7.238;2023-07-09T14:31:48;30.70;90.00
1083;DHT22;530;51.448;7.238;2023-07-09T14:36:46;30.60;86.70
1083;DHT22;530;51.448;7.238;2023-07-09T14:39:12;30.50;88.50
1083;DHT22;530;51.448;7.238;2023-07-09T14:41:38;30.50;88.20
1083;DHT22;530;51.448;7.238;2023-07-09T14:44:18;30.40;88.40
1083;DHT22;530;51.448;7.238;2023-07-09T14:46:45;30.30;90.10
1083;DHT22;530;51.448;7.238;2023-07-09T14:49:10;30.30;90.30
1083;DHT22;530;51.448;7.238;2023-07-09T14:51:36;30.20;90.60
1083;DHT22;530;51.448;7.238;2023-07-09T14:54:02;30.10;94.40
1083;DHT22;530;51.448;7.238;2023-07-09T14:56:28;29.90;93.20
1083;DHT22;530;51.448;7.238;2023-07-09T14:58:53;29.80;93.20
1083;DHT22;530;51.448;7.238;2023-07-09T15:01:20;29.60;92.30
1083;DHT22;530;51.448;7.238;2023-07-09T15:03:46;29.30;92.60
1083;DHT22;530;51.448;7.238;2023-07-09T15:06:12;28.90;98.00
1083;DHT22;530;51.448;7.238;2023-07-09T15:08:37;28.20;99.90
1083;DHT22;530;51.448;7.238;2023-07-09T15:11:03;27.50;99.90
1083;DHT22;530;51.448;7.238;2023-07-09T15:13:34;27.20;99.90
1083;DHT22;530;51.448;7.238;2023-07-09T15:16:02;26.80;99.90
1083;DHT22;530;51.448;7.238;2023-07-09T15:18:28;26.40;99.90
1083;DHT22;530;51.448;7.238;2023-07-09T15:20:56;26.10;99.90
1083;DHT22;530;51.448;7.238;2023-07-09T15:23:23;26.00;99.90
1083;DHT22;530;51.448;7.238;2023-07-09T15:25:50;25.80;99.90
1083;DHT22;530;51.448;7.238;2023-07-09T15:28:16;25.50;99.90
1083;DHT22;530;51.448;7.238;2023-07-09T15:30:41;25.00;99.90
1083;DHT22;530;51.448;7.238;2023-07-09T15:33:16;24.60;99.90
1083;DHT22;530;51.448;7.238;2023-07-09T15:35:44;24.40;99.90
1083;DHT22;530;51.448;7.238;2023-07-09T15:38:31;24.30;99.90
1083;DHT22;530;51.448;7.238;2023-07-09T15:40:57;24.20;99.90
1083;DHT22;530;51.448;7.238;2023-07-09T15:43:23;24.00;99.90
1083;DHT22;530;51.448;7.238;2023-07-09T15:45:52;24.00;99.90
1083;DHT22;530;51.448;7.238;2023-07-09T15:48:34;24.00;99.90
1083;DHT22;530;51.448;7.238;2023-07-09T15:51:02;24.00;99.90
1083;DHT22;530;51.448;7.238;2023-07-09T15:53:28;23.90;99.90
1083;DHT22;530;51.448;7.238;2023-07-09T15:55:58;23.90;99.90
1083;DHT22;530;51.448;7.238;2023-07-09T15:58:29;23.80;99.90
1083;DHT22;530;51.448;7.238;2023-07-09T16:00:58;23.80;99.90
1083;DHT22;530;51.448;7.238;2023-07-09T16:03:23;23.70;99.90
1083;DHT22;530;51.448;7.238;2023-07-09T16:05:49;23.70;99.90
1083;DHT22;530;51.448;7.238;2023-07-09T16:08:15;23.70;99.90
1083;DHT22;530;51.448;7.238;2023-07-09T16:10:41;23.60;99.90
1083;DHT22;530;51.448;7.238;2023-07-09T16:13:17;23.60;99.90
1083;DHT22;530;51.448;7.238;2023-07-09T16:15:43;23.50;99.90
1083;DHT22;530;51.448;7.238;2023-07-09T16:18:10;23.30;99.90
1083;DHT22;530;51.448;7.238;2023-07-09T16:20:40;23.20;99.90
1083;DHT22;530;51.448;7.238;2023-07-09T16:23:12;23.20;99.90
1083;DHT22;530;51.448;7.238;2023-07-09T16:25:39;23.20;99.90
1083;DHT22;530;51.448;7.238;2023-07-09T16:28:07;23.20;99.90
1083;DHT22;530;51.448;7.238;2023-07-09T16:30:34;23.20;99.90
1083;DHT22;530;51.448;7.238;2023-07-09T16:33:02;23.20;99.90
1083;DHT22;530;51.448;7.238;2023-07-09T16:35:28;23.10;99.90
1083;DHT22;530;51.448;7.238;2023-07-09T16:37:55;23.20;99.90
1083;DHT22;530;51.448;7.238;2023-07-09T16:40:24;23.10;99.90
1083;DHT22;530;51.448;7.238;2023-07-09T16:42:51;23.10;99.90
1083;DHT22;530;51.448;7.238;2023-07-09T16:45:20;23.10;99.90
1083;DHT22;530;51.448;7.238;2023-07-09T16:47:49;23.10;99.90
1083;DHT22;530;51.448;7.238;2023-07-09T16:50:19;23.00;99.90
1083;DHT22;530;51.448;7.238;2023-07-09T16:52:46;23.10;99.90
1083;DHT22;530;51.448;7.238;2023-07-09T16:55:23;23.20;99.90
1083;DHT22;530;51.448;7.238;2023-07-09T16:57:52;23.10;99.90
1083;DHT22;530;51.448;7.238;2023-07-09T17:02:54;23.10;99.90
1083;DHT22;530;51.448;7.238;2023-07-09T17:05:20;23.10;99.90
1083;DHT22;530;51.448;7.238;2023-07-09T17:07:46;23.20;99.90
1083;DHT22;530;51.448;7.238;2023-07-09T17:10:13;23.20;99.90
1083;DHT22;530;51.448;7.238;2023-07-09T17:12:39;23.30;99.90